createdAt,value
2022-09-23T00:00:32.506Z,6.50
2022-09-23T00:03:03.520Z,5.60
2022-09-23T00:05:34.987Z,5.70
2022-09-23T00:08:06.364Z,5.60
2022-09-23T00:10:40.570Z,5.90
2022-09-23T00:13:11.931Z,6.00
2022-09-23T00:15:42.881Z,5.50
2022-09-23T00:18:13.981Z,5.50
2022-09-23T00:20:44.950Z,5.50
2022-09-23T00:23:15.922Z,5.40
2022-09-23T00:25:47.155Z,5.20
2022-09-23T00:28:18.046Z,5.70
2022-09-23T00:30:48.993Z,5.60
2022-09-23T00:33:19.911Z,5.70
2022-09-23T00:35:50.920Z,5.80
2022-09-23T00:38:22.006Z,6.00
2022-09-23T00:40:52.959Z,6.40
2022-09-23T00:43:41.599Z,5.90
2022-09-23T00:46:17.784Z,6.10
2022-09-23T00:48:49.913Z,6.10
2022-09-23T00:51:24.763Z,5.50
2022-09-23T00:53:56.044Z,6.90
2022-09-23T00:56:27.307Z,6.00
2022-09-23T00:58:58.267Z,5.90
2022-09-23T01:01:29.948Z,6.60
2022-09-23T01:04:01.354Z,6.10
2022-09-23T01:06:32.975Z,6.00
2022-09-23T01:09:04.076Z,6.90
2022-09-23T01:11:43.821Z,6.30
2022-09-23T01:14:32.154Z,6.30
2022-09-23T01:17:10.455Z,6.10
2022-09-23T01:20:03.357Z,7.00
2022-09-23T01:22:41.466Z,5.60
2022-09-23T01:25:35.372Z,6.10
2022-09-23T01:28:27.520Z,7.10
2022-09-23T01:31:06.126Z,6.70
2022-09-23T01:33:45.305Z,6.60
2022-09-23T01:36:24.938Z,5.50
2022-09-23T01:39:02.292Z,7.00
2022-09-23T01:41:47.207Z,7.30
2022-09-23T01:44:22.968Z,6.40
2022-09-23T01:46:58.438Z,6.50
2022-09-23T01:49:34.406Z,7.00
2022-09-23T01:52:11.175Z,5.80
2022-09-23T01:54:47.843Z,6.10
2022-09-23T01:57:22.782Z,6.00
2022-09-23T01:59:58.539Z,6.40
2022-09-23T02:02:34.845Z,6.00
2022-09-23T02:05:12.675Z,6.70
2022-09-23T02:07:50.470Z,6.70
2022-09-23T02:10:25.158Z,5.90
2022-09-23T02:13:05.545Z,6.30
2022-09-23T02:15:42.681Z,6.10
2022-09-23T02:18:18.037Z,6.60
2022-09-23T02:20:51.812Z,5.90
2022-09-23T02:23:28.984Z,6.00
2022-09-23T02:26:05.466Z,5.90
2022-09-23T02:28:48.167Z,6.70
2022-09-23T02:31:29.060Z,7.10
2022-09-23T02:34:06.393Z,6.20
2022-09-23T02:36:47.132Z,5.70
2022-09-23T02:39:21.919Z,6.50
2022-09-23T02:41:59.847Z,6.70
2022-09-23T02:44:33.136Z,6.60
2022-09-23T02:47:04.533Z,6.50
2022-09-23T02:49:37.411Z,7.10
2022-09-23T02:52:09.162Z,7.50
2022-09-23T02:54:40.756Z,6.60
2022-09-23T02:57:14.617Z,6.50
2022-09-23T02:59:46.905Z,6.50
2022-09-23T03:02:42.825Z,6.80
2022-09-23T03:08:00.954Z,6.30
2022-09-23T03:10:38.104Z,6.50
2022-09-23T03:13:18.921Z,7.60
2022-09-23T03:15:57.350Z,17.30
2022-09-23T03:18:35.146Z,7.70
2022-09-23T03:21:09.627Z,7.10
2022-09-23T03:23:43.910Z,6.80
2022-09-23T03:26:22.036Z,6.80
2022-09-23T03:28:54.063Z,7.10
2022-09-23T03:31:25.255Z,6.80
2022-09-23T03:34:01.102Z,7.50
2022-09-23T03:36:53.686Z,7.20
2022-09-23T03:39:32.801Z,7.20
2022-09-23T03:42:08.320Z,6.70
2022-09-23T03:44:43.619Z,6.90
2022-09-23T03:47:15.178Z,6.50
2022-09-23T03:49:49.703Z,6.50
2022-09-23T03:52:22.430Z,7.00
2022-09-23T03:54:53.604Z,7.30
2022-09-23T03:57:26.079Z,7.90
2022-09-23T03:59:56.940Z,7.70
2022-09-23T04:02:28.198Z,6.90
2022-09-23T04:04:59.226Z,7.90
2022-09-23T04:07:30.471Z,6.70
2022-09-23T04:10:05.952Z,7.10
2022-09-23T04:12:37.458Z,7.40
2022-09-23T04:15:10.207Z,7.30
2022-09-23T04:17:42.104Z,7.30
2022-09-23T04:20:13.759Z,8.10
2022-09-23T04:22:44.826Z,6.50
2022-09-23T04:25:15.839Z,7.60
2022-09-23T04:27:46.878Z,6.60
2022-09-23T04:30:18.855Z,7.80
2022-09-23T04:32:50.994Z,7.80
2022-09-23T04:35:22.623Z,7.40
2022-09-23T04:37:56.533Z,8.90
2022-09-23T04:40:27.624Z,8.70
2022-09-23T04:43:00.314Z,8.20
2022-09-23T04:45:31.393Z,8.20
2022-09-23T04:48:02.396Z,8.70
2022-09-23T04:50:35.430Z,7.90
2022-09-23T04:53:08.754Z,9.30
2022-09-23T04:55:39.569Z,8.70
2022-09-23T04:58:12.028Z,8.60
2022-09-23T05:00:46.440Z,7.80
2022-09-23T05:03:17.808Z,9.10
2022-09-23T05:05:48.698Z,8.30
2022-09-23T05:08:19.541Z,7.80
2022-09-23T05:10:50.337Z,7.90
2022-09-23T05:13:21.218Z,8.80
2022-09-23T05:15:57.913Z,9.10
2022-09-23T05:18:32.281Z,9.60
2022-09-23T05:21:03.686Z,8.70
2022-09-23T05:23:34.991Z,8.30
2022-09-23T05:26:10.625Z,8.40
2022-09-23T05:28:41.575Z,8.10
2022-09-23T05:31:20.046Z,7.70
2022-09-23T05:33:58.530Z,7.90
2022-09-23T05:36:35.604Z,7.80
2022-09-23T05:39:09.662Z,8.10
2022-09-23T05:41:41.842Z,7.50
2022-09-23T05:44:12.642Z,8.30
2022-09-23T05:46:44.840Z,7.50
2022-09-23T05:49:16.625Z,7.40
2022-09-23T05:51:47.583Z,7.90
2022-09-23T05:54:18.744Z,7.90
2022-09-23T05:56:49.604Z,9.30
2022-09-23T05:59:20.429Z,7.90
2022-09-23T06:01:55.733Z,9.10
2022-09-23T06:04:27.652Z,7.70
2022-09-23T06:07:03.335Z,7.20
2022-09-23T06:09:36.771Z,7.40
2022-09-23T06:12:08.283Z,8.50
2022-09-23T06:14:39.245Z,7.40
2022-09-23T06:17:10.045Z,7.40
2022-09-23T06:19:40.842Z,8.50
2022-09-23T06:22:12.075Z,7.10
2022-09-23T06:24:43.170Z,6.80
2022-09-23T06:27:15.959Z,6.80
2022-09-23T06:29:46.857Z,5.80
2022-09-23T06:32:17.742Z,6.60
2022-09-23T06:34:51.966Z,5.70
2022-09-23T06:37:23.542Z,6.20
2022-09-23T06:39:54.954Z,4.80
2022-09-23T06:42:25.832Z,5.30
2022-09-23T06:44:59.448Z,5.40
2022-09-23T06:47:30.271Z,5.10
2022-09-23T06:50:01.460Z,4.90
2022-09-23T06:52:32.403Z,5.40
2022-09-23T06:55:06.627Z,4.80
2022-09-23T06:57:37.676Z,4.90
2022-09-23T07:00:11.582Z,4.60
2022-09-23T07:02:44.685Z,5.00
2022-09-23T07:05:17.364Z,5.30
2022-09-23T07:07:48.155Z,4.60
2022-09-23T07:10:20.720Z,4.80
2022-09-23T07:12:51.860Z,5.30
2022-09-23T07:15:22.842Z,5.60
2022-09-23T07:17:53.939Z,4.80
2022-09-23T07:20:25.233Z,5.30
2022-09-23T07:22:56.996Z,5.20
2022-09-23T07:25:30.419Z,5.20
2022-09-23T07:28:04.446Z,6.80
2022-09-23T07:30:43.595Z,5.00
2022-09-23T07:33:30.480Z,5.40
2022-09-23T07:36:11.166Z,4.70
2022-09-23T07:38:45.656Z,4.10
2022-09-23T07:41:21.139Z,4.40
2022-09-23T07:43:55.393Z,4.20
2022-09-23T07:48:56.645Z,4.30
2022-09-23T07:51:35.463Z,4.30
2022-09-23T07:54:10.876Z,4.00
2022-09-23T07:56:42.706Z,5.50
2022-09-23T07:59:18.836Z,4.90
2022-09-23T08:01:54.224Z,4.50
2022-09-23T08:04:28.228Z,4.40
2022-09-23T08:09:33.406Z,4.60
2022-09-23T08:12:05.507Z,4.40
2022-09-23T08:14:36.394Z,5.10
2022-09-23T08:17:08.641Z,4.20
2022-09-23T08:19:39.458Z,4.20
2022-09-23T08:22:12.099Z,4.00
2022-09-23T08:24:45.760Z,4.20
2022-09-23T08:27:16.597Z,4.20
2022-09-23T08:29:48.169Z,4.50
2022-09-23T08:32:19.210Z,3.80
2022-09-23T08:34:50.400Z,4.20
2022-09-23T08:37:21.339Z,3.80
2022-09-23T08:39:52.174Z,3.50
2022-09-23T08:42:30.719Z,4.30
2022-09-23T08:45:04.474Z,3.50
2022-09-23T08:47:45.954Z,3.40
2022-09-23T08:50:21.480Z,3.30
2022-09-23T08:52:56.094Z,3.40
2022-09-23T08:55:37.932Z,3.60
2022-09-23T08:58:27.149Z,2.90
2022-09-23T09:01:14.973Z,3.00
2022-09-23T09:03:51.944Z,2.30
2022-09-23T09:06:28.482Z,2.40
2022-09-23T09:09:02.697Z,1.90
2022-09-23T09:11:37.872Z,2.00
2022-09-23T09:14:19.277Z,2.40
2022-09-23T09:17:02.568Z,2.10
2022-09-23T09:19:53.088Z,2.00
2022-09-23T09:22:31.208Z,1.60
2022-09-23T09:25:14.472Z,1.50
2022-09-23T09:27:45.929Z,1.30
2022-09-23T09:30:19.385Z,1.40
2022-09-23T09:32:55.150Z,1.50
2022-09-23T09:35:36.958Z,1.00
2022-09-23T09:38:11.228Z,1.30
2022-09-23T09:40:48.865Z,1.40
2022-09-23T09:43:23.538Z,1.70
2022-09-23T09:48:40.473Z,1.20
2022-09-23T09:51:22.358Z,1.40
2022-09-23T09:53:54.319Z,1.40
2022-09-23T09:56:34.356Z,1.20
2022-09-23T09:59:18.337Z,1.10
2022-09-23T10:01:51.616Z,1.40
2022-09-23T10:04:35.100Z,1.10
2022-09-23T10:07:13.630Z,1.10
2022-09-23T10:09:51.446Z,1.20
2022-09-23T10:12:24.601Z,1.20
2022-09-23T10:14:59.874Z,4.20
2022-09-23T10:17:34.000Z,2.40
2022-09-23T10:20:11.073Z,1.20
2022-09-23T10:22:43.318Z,1.30
2022-09-23T10:25:21.465Z,1.30
2022-09-23T10:27:52.340Z,1.30
2022-09-23T10:30:27.232Z,1.90
2022-09-23T10:32:59.210Z,1.50
2022-09-23T10:35:34.533Z,1.30
2022-09-23T10:38:05.333Z,1.50
2022-09-23T10:41:00.236Z,1.30
2022-09-23T10:44:00.022Z,1.70
2022-09-23T10:46:41.857Z,1.60
2022-09-23T10:49:40.542Z,1.50
2022-09-23T10:52:32.046Z,1.40
2022-09-23T10:55:16.635Z,1.50
2022-09-23T10:58:17.810Z,1.30
2022-09-23T11:00:57.929Z,1.40
2022-09-23T11:03:54.611Z,1.50
2022-09-23T11:06:36.581Z,1.80
2022-09-23T11:09:21.176Z,17.40
2022-09-23T11:12:06.881Z,5.50
2022-09-23T11:14:52.630Z,1.40
2022-09-23T11:17:53.933Z,1.30
2022-09-23T11:20:42.733Z,1.50
2022-09-23T11:23:30.921Z,1.20
2022-09-23T11:26:13.082Z,1.60
2022-09-23T11:29:06.235Z,1.30
2022-09-23T11:31:47.741Z,1.40
2022-09-23T11:34:40.241Z,1.40
2022-09-23T11:37:16.596Z,1.30
2022-09-23T11:39:53.421Z,1.70
2022-09-23T11:42:27.320Z,1.20
2022-09-23T11:45:05.203Z,1.20
2022-09-23T11:47:44.156Z,1.30
2022-09-23T11:50:27.966Z,1.30
2022-09-23T11:53:03.601Z,1.60
2022-09-23T11:55:55.338Z,1.60
2022-09-23T11:58:31.225Z,1.90
2022-09-23T12:01:07.191Z,1.50
2022-09-23T12:03:52.062Z,1.50
2022-09-23T12:06:26.939Z,1.60
2022-09-23T12:09:02.398Z,1.40
2022-09-23T12:11:39.381Z,1.20
2022-09-23T12:14:21.679Z,1.50
2022-09-23T12:17:27.016Z,2.10
2022-09-23T12:20:18.636Z,1.50
2022-09-23T12:23:04.624Z,1.40
2022-09-23T12:25:47.163Z,1.30
2022-09-23T12:28:23.133Z,1.30
2022-09-23T12:30:58.987Z,1.30
2022-09-23T12:33:32.485Z,1.40
2022-09-23T12:36:08.021Z,1.30
2022-09-23T12:38:42.023Z,1.20
2022-09-23T12:41:26.630Z,1.40
2022-09-23T12:44:02.516Z,1.10
2022-09-23T12:46:33.649Z,1.20
2022-09-23T12:49:07.325Z,1.10
2022-09-23T12:51:39.478Z,1.40
2022-09-23T12:54:25.218Z,1.10
2022-09-23T12:57:15.323Z,0.90
2022-09-23T13:00:01.207Z,1.20
2022-09-23T13:03:08.323Z,1.30
2022-09-23T13:06:05.239Z,1.40
2022-09-23T13:08:39.502Z,1.70
2022-09-23T13:11:20.680Z,1.40
2022-09-23T13:13:53.998Z,1.30
2022-09-23T13:16:32.268Z,1.60
2022-09-23T13:19:06.431Z,1.60
2022-09-23T13:22:03.059Z,1.50
2022-09-23T13:24:53.428Z,2.60
2022-09-23T13:27:32.896Z,1.90
2022-09-23T13:30:22.339Z,1.50
2022-09-23T13:33:06.432Z,1.40
2022-09-23T13:35:40.912Z,1.50
2022-09-23T13:38:26.399Z,1.40
2022-09-23T13:41:00.086Z,1.30
2022-09-23T13:43:40.269Z,1.70
2022-09-23T13:46:15.152Z,1.50
2022-09-23T13:48:49.302Z,2.60
2022-09-23T13:51:25.079Z,1.50
2022-09-23T13:53:57.260Z,1.60
2022-09-23T13:56:31.074Z,1.40
2022-09-23T13:59:25.325Z,1.60
2022-09-23T14:02:12.454Z,1.80
2022-09-23T14:04:44.325Z,1.80
2022-09-23T14:07:19.094Z,1.50
2022-09-23T14:09:56.404Z,1.90
2022-09-23T14:12:27.466Z,2.70
2022-09-23T14:14:59.101Z,1.70
2022-09-23T14:17:30.342Z,1.60
2022-09-23T14:20:01.221Z,1.50
2022-09-23T14:22:34.360Z,1.60
2022-09-23T14:25:05.646Z,1.30
2022-09-23T14:27:37.746Z,1.60
2022-09-23T14:30:18.001Z,1.40
2022-09-23T14:32:49.009Z,1.70
2022-09-23T14:35:27.580Z,1.80
2022-09-23T14:38:17.662Z,1.50
2022-09-23T14:41:15.599Z,1.50
2022-09-23T14:43:54.734Z,2.00
2022-09-23T14:46:28.102Z,1.60
2022-09-23T14:49:04.075Z,2.80
2022-09-23T14:51:43.336Z,1.90
2022-09-23T14:54:44.181Z,2.00
2022-09-23T14:57:29.045Z,1.70
2022-09-23T15:00:09.870Z,2.10
2022-09-23T15:02:44.309Z,1.80
2022-09-23T15:05:22.342Z,1.80
2022-09-23T15:07:57.981Z,1.90
2022-09-23T15:10:34.162Z,1.60
2022-09-23T15:13:08.960Z,1.70
2022-09-23T15:15:42.132Z,1.60
2022-09-23T15:18:22.424Z,3.40
2022-09-23T15:20:56.601Z,2.00
2022-09-23T15:23:45.839Z,1.50
2022-09-23T15:26:18.836Z,1.50
2022-09-23T15:28:55.893Z,1.90
2022-09-23T15:31:27.504Z,1.60
2022-09-23T15:33:58.864Z,1.40
2022-09-23T15:36:30.532Z,1.50
2022-09-23T15:39:06.928Z,1.70
2022-09-23T15:41:38.732Z,1.60
2022-09-23T15:44:15.598Z,1.80
2022-09-23T15:46:50.606Z,1.80
2022-09-23T15:49:28.858Z,1.70
2022-09-23T15:52:03.875Z,1.80
2022-09-23T15:54:38.096Z,1.80
2022-09-23T15:57:09.338Z,1.80
2022-09-23T15:59:41.103Z,1.80
2022-09-23T16:02:26.867Z,2.40
2022-09-23T16:04:57.971Z,3.20
2022-09-23T16:07:29.341Z,11.40
2022-09-23T16:10:01.193Z,11.80
2022-09-23T16:12:34.067Z,5.20
2022-09-23T16:15:05.339Z,2.60
2022-09-23T16:17:38.557Z,2.80
2022-09-23T16:20:13.128Z,1.90
2022-09-23T16:22:45.184Z,2.00
2022-09-23T16:25:16.403Z,1.80
2022-09-23T16:27:48.002Z,2.70
2022-09-23T16:30:19.539Z,3.40
2022-09-23T16:32:51.972Z,2.80
2022-09-23T16:35:24.991Z,1.80
2022-09-23T16:37:57.186Z,1.80
2022-09-23T16:40:28.354Z,2.00
2022-09-23T16:43:05.725Z,2.10
2022-09-23T16:45:36.762Z,2.20
2022-09-23T16:48:11.528Z,2.50
2022-09-23T16:50:44.242Z,2.20
2022-09-23T16:53:18.202Z,1.90
2022-09-23T16:55:53.692Z,2.00
2022-09-23T16:58:25.152Z,2.10
2022-09-23T17:01:21.996Z,2.00
2022-09-23T17:03:53.737Z,2.20
2022-09-23T17:06:27.978Z,2.50
2022-09-23T17:09:00.387Z,2.90
2022-09-23T17:11:34.227Z,2.70
2022-09-23T17:14:06.207Z,3.50
2022-09-23T17:16:37.552Z,3.30
2022-09-23T17:19:12.105Z,3.50
2022-09-23T17:21:43.120Z,3.50
2022-09-23T17:24:15.906Z,3.60
2022-09-23T17:26:53.022Z,3.80
2022-09-23T17:29:26.931Z,3.40
2022-09-23T17:31:58.288Z,3.90
2022-09-23T17:34:30.054Z,3.70
2022-09-23T17:37:02.661Z,3.70
2022-09-23T17:39:34.394Z,3.70
2022-09-23T17:42:08.400Z,3.90
2022-09-23T17:44:39.336Z,4.40
2022-09-23T17:47:13.045Z,4.60
2022-09-23T17:49:47.153Z,4.50
2022-09-23T17:52:20.905Z,4.10
2022-09-23T17:54:55.093Z,3.90
2022-09-23T17:57:26.522Z,4.90
2022-09-23T17:59:57.630Z,4.40
2022-09-23T18:02:28.727Z,4.40
2022-09-23T18:05:00.716Z,6.20
2022-09-23T18:07:31.897Z,5.70
2022-09-23T18:10:02.888Z,4.80
2022-09-23T18:12:33.929Z,4.20
2022-09-23T18:15:05.391Z,3.80
2022-09-23T18:17:36.526Z,3.80
2022-09-23T18:20:09.896Z,4.70
2022-09-23T18:22:40.919Z,4.40
2022-09-23T18:25:35.056Z,5.60
2022-09-23T18:28:04.548Z,4.30
2022-09-23T18:30:36.017Z,4.80
2022-09-23T18:33:08.565Z,6.80
2022-09-23T18:35:40.727Z,6.40
2022-09-23T18:40:56.465Z,5.20
2022-09-23T18:43:40.787Z,5.60
2022-09-23T18:46:19.106Z,5.00
2022-09-23T18:49:08.433Z,4.40
2022-09-23T18:51:48.796Z,4.70
2022-09-23T18:54:22.899Z,5.40
2022-09-23T18:56:54.435Z,5.40
2022-09-23T18:59:29.222Z,4.40
2022-09-23T19:02:00.838Z,4.60
2022-09-23T19:04:31.859Z,4.10
2022-09-23T19:07:07.461Z,4.00
2022-09-23T19:09:41.871Z,3.90
2022-09-23T19:12:12.757Z,3.80
2022-09-23T19:14:46.146Z,3.00
2022-09-23T19:17:20.368Z,3.80
2022-09-23T19:19:51.636Z,3.50
2022-09-23T19:22:23.225Z,3.50
2022-09-23T19:24:54.153Z,3.20
2022-09-23T19:27:25.210Z,3.10
2022-09-23T19:29:57.816Z,3.50
2022-09-23T19:32:29.142Z,3.20
2022-09-23T19:35:00.404Z,3.10
2022-09-23T19:37:31.560Z,3.30
2022-09-23T19:40:03.855Z,3.20
2022-09-23T19:42:38.242Z,3.40
2022-09-23T19:45:10.928Z,3.80
2022-09-23T19:47:42.679Z,8.60
2022-09-23T19:50:13.959Z,6.40
2022-09-23T19:52:45.256Z,4.80
2022-09-23T19:55:47.247Z,6.00
2022-09-23T19:58:20.056Z,4.40
2022-09-23T20:01:03.466Z,3.80
2022-09-23T20:03:53.834Z,4.90
2022-09-23T20:06:25.546Z,4.60
2022-09-23T20:09:26.819Z,4.20
2022-09-23T20:12:00.294Z,3.60
2022-09-23T20:14:31.562Z,4.30
2022-09-23T20:17:16.363Z,3.90
2022-09-23T20:19:48.160Z,4.00
2022-09-23T20:22:33.064Z,3.50
2022-09-23T20:27:57.373Z,3.90
2022-09-23T20:30:31.955Z,3.70
2022-09-23T20:33:04.157Z,3.60
2022-09-23T20:35:35.641Z,4.10
2022-09-23T20:38:08.168Z,4.40
2022-09-23T20:40:39.384Z,3.20
2022-09-23T20:43:10.380Z,4.70
2022-09-23T20:45:52.584Z,4.20
2022-09-23T20:48:24.730Z,4.70
2022-09-23T20:51:01.673Z,4.20
2022-09-23T20:53:35.141Z,4.60
2022-09-23T20:56:07.236Z,5.30
2022-09-23T20:58:38.196Z,5.40
2022-09-23T21:01:11.921Z,6.70
2022-09-23T21:03:44.916Z,6.60
2022-09-23T21:06:37.358Z,6.50
2022-09-23T21:09:09.204Z,6.10
2022-09-23T21:11:40.244Z,7.00
2022-09-23T21:14:11.274Z,6.70
2022-09-23T21:16:42.179Z,7.70
2022-09-23T21:19:13.053Z,7.50
2022-09-23T21:21:44.172Z,7.90
2022-09-23T21:24:45.721Z,8.30
2022-09-23T21:27:05.856Z,6.40
2022-09-23T21:29:36.685Z,7.30
2022-09-23T21:32:07.605Z,7.20
2022-09-23T21:34:38.443Z,7.40
2022-09-23T21:37:09.387Z,8.10
2022-09-23T21:39:40.232Z,7.60
2022-09-23T21:42:12.152Z,8.00
2022-09-23T21:44:43.049Z,8.40
2022-09-23T21:47:13.941Z,7.60
2022-09-23T21:49:50.617Z,7.60
2022-09-23T21:52:21.817Z,7.90
2022-09-23T21:54:52.722Z,8.80
2022-09-23T21:57:25.973Z,7.00
2022-09-23T21:59:56.841Z,8.10
2022-09-23T22:02:27.682Z,7.20
2022-09-23T22:04:58.500Z,7.20
2022-09-23T22:07:29.359Z,7.00
2022-09-23T22:10:00.230Z,8.10
2022-09-23T22:12:31.115Z,8.00
2022-09-23T22:15:02.085Z,9.10
2022-09-23T22:17:33.310Z,8.70
2022-09-23T22:20:04.734Z,7.80
2022-09-23T22:22:35.639Z,8.30
2022-09-23T22:25:07.600Z,7.70
2022-09-23T22:27:58.480Z,8.60
2022-09-23T22:30:46.821Z,8.60
2022-09-23T22:33:19.609Z,8.60
2022-09-23T22:35:51.116Z,8.00
2022-09-23T22:38:22.159Z,9.10
2022-09-23T22:40:53.569Z,9.20
2022-09-23T22:43:24.453Z,9.60
2022-09-23T22:45:55.317Z,9.60
2022-09-23T22:48:26.179Z,9.80
2022-09-23T22:50:57.114Z,10.10
2022-09-23T22:53:29.033Z,9.80
2022-09-23T22:56:03.142Z,10.40
2022-09-23T22:58:34.011Z,11.20
2022-09-23T23:01:06.726Z,10.20
2022-09-23T23:03:37.787Z,11.30
2022-09-23T23:06:10.606Z,10.20
2022-09-23T23:08:41.931Z,10.40
2022-09-23T23:11:12.982Z,10.80
2022-09-23T23:13:44.299Z,11.20
2022-09-23T23:16:15.476Z,10.80
2022-09-23T23:18:47.818Z,11.10
2022-09-23T23:21:20.611Z,11.20
2022-09-23T23:23:53.376Z,10.40
2022-09-23T23:26:26.251Z,11.20
2022-09-23T23:28:57.919Z,10.70
2022-09-23T23:31:32.228Z,11.90
2022-09-23T23:34:03.282Z,10.70
2022-09-23T23:36:34.199Z,10.60
2022-09-23T23:39:05.117Z,10.20
2022-09-23T23:41:36.427Z,10.40
2022-09-23T23:44:07.881Z,11.50
2022-09-23T23:46:38.950Z,11.80
2022-09-23T23:49:10.187Z,11.60
2022-09-23T23:51:41.326Z,11.90
2022-09-23T23:54:15.314Z,11.80
2022-09-23T23:56:46.544Z,12.40
2022-09-23T23:59:20.114Z,11.70
